createdAt,value
2018-05-21T00:05:18.131Z,12.50
2018-05-21T00:07:47.399Z,12.50
2018-05-21T00:10:15.645Z,12.40
2018-05-21T00:12:44.223Z,12.50
2018-05-21T00:15:13.990Z,12.40
2018-05-21T00:17:42.216Z,12.40
2018-05-21T00:20:11.337Z,12.40
2018-05-21T00:22:40.385Z,12.30
2018-05-21T00:25:09.498Z,12.30
2018-05-21T00:27:39.167Z,12.30
2018-05-21T00:30:07.456Z,12.20
2018-05-21T00:32:35.714Z,12.20
2018-05-21T00:35:03.987Z,12.10
2018-05-21T00:37:32.258Z,12.10
2018-05-21T00:40:01.529Z,12.10
2018-05-21T00:42:30.688Z,12.00
2018-05-21T00:44:59.438Z,12.00
2018-05-21T00:47:29.008Z,12.10
2018-05-21T00:49:57.277Z,12.10
2018-05-21T00:52:25.537Z,12.10
2018-05-21T00:55:05.965Z,12.10
2018-05-21T00:57:35.044Z,12.10
2018-05-21T01:00:03.362Z,12.10
2018-05-21T01:20:17.985Z,12.00
2018-05-21T01:22:46.327Z,11.90
2018-05-21T01:25:15.703Z,11.90
2018-05-21T01:27:44.004Z,11.90
2018-05-21T01:30:13.074Z,11.80
2018-05-21T01:32:41.401Z,11.80
2018-05-21T01:35:10.441Z,11.80
2018-05-21T01:37:38.719Z,11.80
2018-05-21T01:40:07.002Z,11.80
2018-05-21T01:42:36.006Z,11.80
2018-05-21T01:45:05.215Z,11.70
2018-05-21T01:47:33.458Z,11.70
2018-05-21T01:50:01.770Z,11.70
2018-05-21T02:10:17.904Z,11.40
2018-05-21T02:12:46.210Z,11.40
2018-05-21T02:33:03.539Z,11.00
2018-05-21T02:35:32.074Z,11.00
2018-05-21T02:38:00.328Z,11.00
2018-05-21T02:40:29.386Z,11.00
2018-05-21T02:42:57.723Z,11.00
2018-05-21T02:45:26.755Z,11.10
2018-05-21T02:47:55.078Z,11.10
2018-05-21T02:50:23.374Z,11.00
2018-05-21T02:52:52.389Z,11.00
2018-05-21T02:55:21.647Z,11.00
2018-05-21T03:15:35.964Z,10.90
2018-05-21T03:18:04.337Z,10.90
2018-05-21T03:20:32.690Z,10.90
2018-05-21T03:23:01.922Z,10.90
2018-05-21T03:25:30.939Z,10.90
2018-05-21T03:27:59.430Z,10.90
2018-05-21T03:30:27.764Z,10.90
2018-05-21T03:32:56.047Z,10.90
2018-05-21T03:35:24.869Z,10.90
2018-05-21T03:55:45.019Z,10.40
2018-05-21T03:58:26.915Z,10.40
2018-05-21T04:01:07.206Z,10.50
2018-05-21T04:03:47.333Z,10.50
2018-05-21T04:24:03.243Z,10.80
2018-05-21T04:26:31.519Z,10.80
2018-05-21T04:28:59.760Z,10.90
2018-05-21T04:31:28.579Z,11.10
2018-05-21T04:51:44.346Z,11.10
2018-05-21T04:54:12.785Z,11.10
2018-05-21T04:56:41.099Z,11.10
2018-05-21T04:59:09.479Z,11.10
2018-05-21T05:01:38.103Z,11.20
2018-05-21T05:21:52.837Z,11.30
2018-05-21T05:24:21.155Z,11.50
2018-05-21T05:26:49.401Z,11.60
2018-05-21T05:29:19.820Z,11.60
2018-05-21T05:31:48.235Z,11.70
2018-05-21T05:52:03.058Z,12.20
2018-05-21T05:54:32.431Z,12.40
2018-05-21T05:57:00.739Z,12.40
2018-05-21T05:59:29.738Z,12.50
2018-05-21T06:01:58.059Z,12.60
2018-05-21T06:04:26.346Z,12.60
2018-05-21T06:06:55.190Z,12.70
2018-05-21T06:27:10.380Z,13.20
2018-05-21T06:29:38.747Z,13.30
2018-05-21T06:32:07.056Z,13.40
2018-05-21T06:34:35.400Z,13.50
2018-05-21T06:37:05.114Z,13.70
2018-05-21T06:39:33.748Z,13.70
2018-05-21T06:42:02.798Z,13.80
2018-05-21T06:44:31.116Z,13.80
2018-05-21T06:46:59.595Z,13.80
2018-05-21T06:49:27.886Z,13.80
2018-05-21T06:51:56.198Z,13.90
2018-05-21T07:12:10.908Z,14.20
2018-05-21T07:14:39.193Z,14.40
2018-05-21T07:17:07.461Z,14.40
2018-05-21T07:37:24.605Z,14.80
2018-05-21T07:39:52.991Z,14.90
2018-05-21T07:42:21.327Z,14.90
2018-05-21T07:44:49.894Z,14.90
2018-05-21T07:47:18.215Z,14.90
2018-05-21T07:49:46.467Z,15.00
2018-05-21T07:52:14.773Z,15.10
2018-05-21T08:12:29.753Z,15.40
2018-05-21T08:14:58.438Z,15.50
2018-05-21T08:17:26.686Z,15.60
2018-05-21T08:19:55.112Z,15.70
2018-05-21T08:22:26.259Z,15.80
2018-05-21T08:24:55.247Z,15.80
2018-05-21T08:27:22.808Z,15.90
2018-05-21T08:29:51.107Z,15.90
2018-05-21T08:32:20.417Z,16.00
2018-05-21T08:34:48.725Z,16.00
2018-05-21T08:37:17.230Z,16.10
2018-05-21T08:39:45.518Z,16.20
2018-05-21T08:42:13.823Z,16.30
2018-05-21T08:44:42.435Z,16.30
2018-05-21T08:47:11.479Z,16.50
2018-05-21T08:49:39.758Z,16.50
2018-05-21T08:52:09.692Z,16.50
2018-05-21T08:54:37.940Z,16.70
2018-05-21T08:57:06.218Z,16.70
2018-05-21T09:17:26.405Z,17.30
2018-05-21T09:19:55.459Z,17.30
2018-05-21T09:22:27.472Z,17.20
2018-05-21T09:24:56.538Z,17.30
2018-05-21T09:27:24.821Z,17.30
2018-05-21T09:29:53.226Z,17.30
2018-05-21T09:32:22.322Z,17.30
2018-05-21T09:34:50.720Z,17.50
2018-05-21T09:37:19.768Z,17.60
2018-05-21T09:57:34.049Z,17.80
2018-05-21T10:00:02.355Z,17.80
2018-05-21T10:02:30.630Z,17.90
2018-05-21T10:22:46.453Z,18.50
2018-05-21T10:43:01.002Z,19.00
2018-05-21T10:45:29.698Z,19.00
2018-05-21T10:47:59.862Z,19.10
2018-05-21T10:50:28.894Z,19.20
2018-05-21T10:52:57.215Z,19.20
2018-05-21T10:55:25.959Z,19.30
2018-05-21T10:57:55.148Z,19.30
2018-05-21T11:00:23.438Z,19.40
2018-05-21T11:02:52.477Z,19.50
2018-05-21T11:05:20.787Z,19.50
2018-05-21T11:07:49.375Z,19.50
2018-05-21T11:10:18.619Z,19.70
2018-05-21T11:12:47.621Z,19.90
2018-05-21T11:15:17.212Z,19.90
2018-05-21T11:35:31.233Z,20.30
2018-05-21T11:37:59.983Z,20.50
2018-05-21T11:40:29.044Z,20.50
2018-05-21T11:42:57.323Z,20.60
2018-05-21T11:45:25.633Z,20.70
2018-05-21T12:05:41.722Z,21.30
2018-05-21T12:08:10.363Z,21.30
2018-05-21T12:28:25.191Z,22.20
2018-05-21T12:30:53.495Z,22.30
2018-05-21T12:33:21.768Z,22.50
2018-05-21T12:35:51.477Z,22.50
2018-05-21T12:38:20.233Z,22.70
2018-05-21T12:40:48.533Z,22.90
2018-05-21T12:43:16.845Z,22.90
2018-05-21T12:45:45.564Z,23.10
2018-05-21T12:48:13.821Z,23.10
2018-05-21T12:50:42.099Z,23.10
2018-05-21T12:53:10.395Z,23.10
2018-05-21T12:55:39.424Z,23.20
2018-05-21T12:58:10.345Z,23.70
2018-05-21T13:00:40.549Z,24.00
2018-05-21T13:03:08.777Z,23.90
2018-05-21T13:05:37.079Z,24.10
2018-05-21T13:08:06.198Z,24.50
2018-05-21T13:10:34.511Z,25.00
2018-05-21T13:13:02.733Z,25.30
2018-05-21T13:15:30.985Z,25.60
2018-05-21T13:18:00.041Z,25.90
2018-05-21T13:20:31.204Z,26.00
2018-05-21T13:22:59.518Z,26.30
2018-05-21T13:25:29.283Z,26.90
2018-05-21T13:27:57.563Z,26.80
2018-05-21T13:30:26.257Z,26.90
2018-05-21T13:50:40.525Z,29.70
2018-05-21T13:53:08.844Z,30.30
2018-05-21T13:55:38.816Z,31.10
2018-05-21T13:58:07.074Z,31.00
2018-05-21T14:00:35.403Z,31.10
2018-05-21T14:03:04.237Z,31.00
2018-05-21T14:05:33.233Z,31.00
2018-05-21T14:08:01.509Z,31.00
2018-05-21T14:10:29.754Z,31.00
2018-05-21T14:12:58.006Z,31.50
2018-05-21T14:15:26.712Z,31.80
2018-05-21T14:17:56.016Z,31.60
2018-05-21T14:20:24.293Z,32.20
2018-05-21T14:22:52.557Z,32.40
2018-05-21T14:25:21.112Z,33.00
2018-05-21T14:45:36.331Z,33.70
2018-05-21T14:48:04.631Z,33.70
2018-05-21T14:50:32.932Z,32.60
2018-05-21T14:53:01.447Z,32.30
2018-05-21T14:55:30.482Z,33.10
2018-05-21T14:57:58.721Z,33.00
2018-05-21T15:18:13.315Z,30.10
2018-05-21T15:20:41.815Z,28.40
2018-05-21T15:23:10.797Z,26.90
2018-05-21T15:25:40.071Z,26.20
2018-05-21T15:28:08.371Z,26.20
2018-05-21T15:48:25.065Z,19.90
2018-05-21T15:50:53.370Z,19.70
2018-05-21T15:53:21.630Z,19.60
2018-05-21T15:55:51.778Z,19.90
2018-05-21T15:58:22.257Z,19.80
2018-05-21T16:00:50.593Z,19.80
2018-05-21T16:03:20.712Z,19.50
2018-05-21T16:05:49.843Z,19.50
2018-05-21T16:08:18.245Z,19.30
2018-05-21T16:10:46.743Z,19.00
2018-05-21T16:13:15.169Z,19.00
2018-05-21T16:15:44.258Z,18.90
2018-05-21T16:18:12.774Z,18.60
2018-05-21T16:20:42.538Z,18.60
2018-05-21T16:23:10.926Z,18.60
2018-05-21T16:25:41.273Z,18.70
2018-05-21T16:28:09.577Z,18.90
2018-05-21T16:30:38.597Z,18.90
2018-05-21T16:33:06.867Z,19.00
2018-05-21T16:53:21.951Z,19.30
2018-05-21T16:55:51.718Z,19.30
2018-05-21T16:58:20.014Z,19.30
2018-05-21T17:00:48.245Z,19.30
2018-05-21T17:03:16.591Z,19.30
2018-05-21T17:05:46.636Z,19.20
2018-05-21T17:08:15.680Z,19.40
2018-05-21T17:10:44.216Z,19.30
2018-05-21T17:13:13.265Z,19.40
2018-05-21T17:15:43.032Z,19.40
2018-05-21T17:18:12.076Z,19.40
2018-05-21T17:20:40.362Z,19.40
2018-05-21T17:40:54.739Z,18.70
2018-05-21T17:43:22.965Z,18.60
2018-05-21T17:45:52.377Z,18.50
2018-05-21T17:48:20.631Z,18.40
2018-05-21T17:50:48.912Z,18.40
2018-05-21T17:53:17.195Z,18.30
2018-05-21T17:55:45.507Z,18.40
2018-05-21T18:15:59.726Z,18.10
2018-05-21T18:18:28.271Z,18.00
2018-05-21T18:20:56.496Z,18.00
2018-05-21T18:23:24.784Z,18.00
2018-05-21T18:25:53.298Z,18.00
2018-05-21T18:28:22.325Z,18.00
2018-05-21T18:30:50.602Z,18.00
2018-05-21T18:33:20.405Z,18.00
2018-05-21T18:53:35.419Z,17.70
2018-05-21T18:56:04.650Z,17.50
2018-05-21T18:58:33.846Z,17.50
2018-05-21T19:01:02.507Z,17.40
2018-05-21T19:03:31.558Z,17.30
2018-05-21T19:06:00.538Z,17.30
2018-05-21T19:08:29.215Z,17.20
2018-05-21T19:10:59.006Z,17.00
2018-05-21T19:13:28.072Z,17.00
2018-05-21T19:15:56.696Z,16.90
2018-05-21T19:36:12.520Z,16.60
2018-05-21T19:38:41.699Z,16.60
2018-05-21T19:41:11.444Z,16.60
2018-05-21T20:01:26.471Z,16.20
2018-05-21T20:03:54.779Z,16.20
2018-05-21T20:06:23.038Z,16.10
2018-05-21T20:08:51.457Z,16.10
2018-05-21T20:11:20.470Z,16.00
2018-05-21T20:13:49.743Z,16.00
2018-05-21T20:16:18.045Z,16.00
2018-05-21T20:18:46.304Z,15.90
2018-05-21T20:21:15.470Z,15.90
2018-05-21T20:23:43.762Z,15.90
2018-05-21T20:26:12.050Z,15.80
2018-05-21T20:28:40.342Z,15.70
2018-05-21T20:31:08.619Z,15.70
2018-05-21T20:33:38.323Z,15.80
2018-05-21T20:53:53.196Z,15.60
2018-05-21T20:56:21.440Z,15.50
2018-05-21T20:58:51.465Z,15.30
2018-05-21T21:01:19.981Z,15.20
2018-05-21T21:03:48.158Z,15.20
2018-05-21T21:06:16.762Z,15.20
2018-05-21T21:08:45.063Z,15.20
2018-05-21T21:11:13.346Z,15.20
2018-05-21T21:13:41.602Z,15.10
2018-05-21T21:16:12.115Z,15.10
2018-05-21T21:18:41.214Z,15.10
2018-05-21T21:21:09.477Z,15.10
2018-05-21T21:41:24.256Z,15.00
2018-05-21T21:43:52.818Z,15.10
2018-05-21T22:04:08.420Z,14.90
2018-05-21T22:06:36.706Z,14.80
2018-05-21T22:09:06.542Z,14.70
2018-05-21T22:11:34.858Z,14.70
2018-05-21T22:14:03.599Z,14.70
2018-05-21T22:16:33.487Z,14.60
2018-05-21T22:19:02.411Z,14.60
2018-05-21T22:21:30.892Z,14.60
2018-05-21T22:23:59.165Z,14.60
2018-05-21T22:26:27.438Z,14.50
2018-05-21T22:28:55.972Z,14.40
2018-05-21T22:31:24.278Z,14.30
2018-05-21T22:33:53.266Z,14.10
2018-05-21T22:36:22.673Z,14.10
2018-05-21T22:38:51.669Z,14.00
2018-05-21T22:41:19.955Z,13.90
2018-05-21T22:43:49.177Z,14.00
2018-05-21T22:46:17.484Z,14.00
2018-05-21T23:06:30.984Z,13.90
2018-05-21T23:26:46.803Z,13.60
2018-05-21T23:29:16.553Z,13.70
2018-05-21T23:31:44.830Z,13.70
2018-05-21T23:34:13.287Z,13.70
2018-05-21T23:36:42.307Z,13.80
2018-05-21T23:56:57.642Z,13.40
2018-05-21T23:59:25.935Z,13.40
